Time;durP1;ratioP1;P1;durP2;ratioP2;P2;SDS_P1;SDS_P2;PMS_P1;PMS_P2;Temp;Humidity;BMP_temperature;BMP_pressure;BME280_temperature;BME280_humidity;BME280_pressure;Samples;Min_cycle;Max_cycle;Signal;HPM_P1;HPM_P2
2023/02/28 00:00:46;;;;;;;13.57;8.70;;;-1.60;83.60;;;;;;5051728;28;20020;-82
2023/02/28 00:03:11;;;;;;;18.95;9.05;;;-1.60;83.50;;;;;;5052561;28;20491;-81
2023/02/28 00:05:38;;;;;;;18.13;10.25;;;-1.70;84.10;;;;;;5052725;28;20021;-81
2023/02/28 00:08:04;;;;;;;15.18;8.75;;;-1.70;84.70;;;;;;5052532;28;20076;-81
2023/02/28 00:10:30;;;;;;;12.57;8.20;;;-1.70;84.90;;;;;;5051265;28;20067;-81
2023/02/28 00:13:02;;;;;;;14.60;8.63;;;-1.70;84.50;;;;;;5051340;28;20029;-82
2023/02/28 00:15:27;;;;;;;18.88;9.65;;;-1.70;84.80;;;;;;5053222;28;20075;-82
2023/02/28 00:17:53;;;;;;;17.52;9.38;;;-1.60;85.00;;;;;;5052451;28;20486;-81
2023/02/28 00:20:20;;;;;;;17.52;8.52;;;-1.70;84.70;;;;;;5052625;28;20108;-81
2023/02/28 00:22:49;;;;;;;18.10;9.43;;;-1.70;84.70;;;;;;5052489;28;20391;-82
2023/02/28 00:25:21;;;;;;;16.27;8.05;;;-1.70;85.20;;;;;;5051643;28;20033;-82
2023/02/28 00:27:47;;;;;;;17.42;8.88;;;-1.70;84.90;;;;;;5052482;28;20043;-82
2023/02/28 00:30:23;;;;;;;17.23;9.10;;;-1.80;85.00;;;;;;5052551;28;20025;-82
2023/02/28 00:32:50;;;;;;;16.02;9.10;;;-1.80;84.90;;;;;;5052386;28;20429;-82
2023/02/28 00:35:16;;;;;;;21.08;11.15;;;-1.80;85.20;;;;;;5052544;28;20071;-83
2023/02/28 00:37:42;;;;;;;23.75;13.73;;;-1.80;85.90;;;;;;5051030;28;20075;-81
2023/02/28 00:40:09;;;;;;;21.05;12.02;;;-1.80;85.60;;;;;;5051111;28;20029;-82
2023/02/28 00:42:35;;;;;;;43.20;21.98;;;-1.80;86.00;;;;;;5051373;28;20493;-80
2023/02/28 00:45:03;;;;;;;33.17;20.25;;;-1.80;86.60;;;;;;5052257;28;20056;-82
2023/02/28 00:47:29;;;;;;;29.63;15.98;;;-1.80;87.10;;;;;;5051357;28;20382;-82
2023/02/28 00:49:54;;;;;;;26.00;12.95;;;-1.80;86.70;;;;;;5052392;28;20028;-82
2023/02/28 00:52:20;;;;;;;17.73;9.57;;;-1.80;85.50;;;;;;5055213;28;20470;-81
2023/02/28 00:54:46;;;;;;;19.15;11.30;;;-1.80;85.60;;;;;;5056099;28;20025;-81
2023/02/28 00:57:11;;;;;;;17.63;9.25;;;-1.90;85.70;;;;;;5056075;28;20029;-81
2023/02/28 00:59:37;;;;;;;16.35;9.63;;;-1.80;85.50;;;;;;5056582;28;20021;-82
2023/02/28 01:02:03;;;;;;;22.10;11.98;;;-1.90;84.70;;;;;;5055932;28;20032;-80
2023/02/28 01:04:28;;;;;;;20.27;11.75;;;-1.90;84.60;;;;;;5056012;28;20103;-80
2023/02/28 01:06:54;;;;;;;19.60;11.63;;;-1.90;85.20;;;;;;5055179;28;20029;-82
2023/02/28 01:09:20;;;;;;;20.13;9.82;;;-2.00;85.80;;;;;;5055568;28;20083;-82
2023/02/28 01:11:45;;;;;;;14.07;7.35;;;-2.00;86.10;;;;;;5054177;28;20070;-83
2023/02/28 01:14:16;;;;;;;26.25;12.52;;;-2.00;86.40;;;;;;5054243;28;20216;-82
2023/02/28 01:16:42;;;;;;;21.90;10.68;;;-2.00;86.40;;;;;;5055905;28;20112;-82
2023/02/28 01:19:08;;;;;;;19.05;12.05;;;-2.00;86.50;;;;;;5055679;28;20119;-83
2023/02/28 01:21:34;;;;;;;31.38;14.82;;;-2.00;85.90;;;;;;5055500;28;20382;-83
2023/02/28 01:24:00;;;;;;;30.35;13.77;;;-2.00;85.90;;;;;;5055710;28;20021;-84
2023/02/28 01:26:26;;;;;;;26.02;14.20;;;-2.00;85.70;;;;;;5053945;28;20048;-83
2023/02/28 01:28:52;;;;;;;24.40;12.63;;;-2.00;86.20;;;;;;5054196;28;20025;-84
2023/02/28 01:31:19;;;;;;;17.88;10.10;;;-2.00;86.50;;;;;;5055403;28;20014;-83
2023/02/28 01:33:46;;;;;;;21.17;10.95;;;-2.00;86.90;;;;;;5054342;28;20174;-83
2023/02/28 01:36:15;;;;;;;23.55;13.07;;;-2.00;86.80;;;;;;5055417;28;20029;-84
2023/02/28 01:38:40;;;;;;;24.35;13.85;;;-2.00;86.80;;;;;;5053760;28;20044;-82
2023/02/28 01:41:07;;;;;;;13.50;8.50;;;-2.00;87.10;;;;;;5074785;28;20029;-81
2023/02/28 01:43:52;;;;;;;19.48;10.00;;;-2.00;87.10;;;;;;5064427;28;20029;-80
2023/02/28 01:46:18;;;;;;;16.80;8.75;;;-2.00;87.30;;;;;;5053970;28;20045;-80
2023/02/28 01:48:46;;;;;;;17.75;9.02;;;-2.00;87.60;;;;;;5055011;28;20501;-80
2023/02/28 01:51:16;;;;;;;19.58;9.70;;;-2.00;87.50;;;;;;5055433;28;20033;-80
2023/02/28 01:53:49;;;;;;;29.13;13.40;;;-2.10;88.10;;;;;;5055346;28;20052;-81
2023/02/28 01:56:20;;;;;;;20.95;12.35;;;-2.10;88.40;;;;;;5055083;28;20052;-80
2023/02/28 01:58:51;;;;;;;26.20;13.30;;;-2.20;88.70;;;;;;5055426;28;20553;-80
2023/02/28 02:01:21;;;;;;;28.77;15.43;;;-2.20;89.10;;;;;;5053228;28;20462;-80
2023/02/28 02:03:55;;;;;;;30.00;15.57;;;-2.30;89.40;;;;;;5055172;28;20478;-79
2023/02/28 02:06:27;;;;;;;26.40;15.68;;;-2.30;90.10;;;;;;5054142;28;20437;-80
2023/02/28 02:08:53;;;;;;;17.08;10.52;;;-2.40;90.50;;;;;;5055103;28;20029;-79
2023/02/28 02:11:21;;;;;;;15.27;9.80;;;-2.40;90.90;;;;;;5055107;28;20070;-79
2023/02/28 02:14:10;;;;;;;16.45;9.05;;;-2.30;91.20;;;;;;5054960;28;20047;-80
2023/02/28 02:16:39;;;;;;;14.02;8.02;;;-2.40;91.10;;;;;;5054832;28;20027;-79
2023/02/28 02:19:55;;;;;;;19.35;9.73;;;-2.40;90.80;;;;;;5054867;28;20029;-79
2023/02/28 02:22:45;;;;;;;12.95;8.57;;;-2.40;90.50;;;;;;4977075;28;20035;-79
2023/02/28 02:25:16;;;;;;;14.20;8.52;;;-2.40;91.20;;;;;;4977044;28;20034;-80
2023/02/28 02:27:45;;;;;;;16.38;9.43;;;-2.50;91.40;;;;;;5026865;28;20071;-80
2023/02/28 02:30:25;;;;;;;16.50;8.85;;;-2.50;91.60;;;;;;5053285;28;20020;-80
2023/02/28 02:33:10;;;;;;;15.48;8.80;;;-2.60;91.40;;;;;;5053610;28;20487;-80
2023/02/28 02:35:54;;;;;;;15.48;9.27;;;-2.70;91.60;;;;;;5054563;28;20032;-81
2023/02/28 02:38:45;;;;;;;15.90;9.30;;;-2.80;91.90;;;;;;5053385;28;20048;-80
2023/02/28 02:41:39;;;;;;;14.32;9.23;;;-2.90;92.60;;;;;;5054574;28;20013;-81
2023/02/28 02:44:20;;;;;;;16.85;9.35;;;-2.90;93.30;;;;;;5053457;28;20025;-81
2023/02/28 02:46:47;;;;;;;16.10;9.77;;;-3.00;94.80;;;;;;5053494;28;20053;-81
2023/02/28 02:49:22;;;;;;;20.13;10.13;;;-3.10;96.50;;;;;;5052036;28;20051;-80
2023/02/28 02:51:49;;;;;;;17.90;8.77;;;-3.10;98.10;;;;;;5053438;28;20111;-80
2023/02/28 02:54:22;;;;;;;16.23;9.20;;;-3.10;98.40;;;;;;5051926;28;20082;-80
2023/02/28 02:56:50;;;;;;;19.00;11.02;;;-3.20;98.60;;;;;;5053182;28;20028;-80
2023/02/28 02:59:21;;;;;;;16.88;9.10;;;-3.20;98.70;;;;;;5035647;28;20083;-80
2023/02/28 03:01:51;;;;;;;16.17;9.75;;;-3.20;99.40;;;;;;5051793;28;20478;-81
2023/02/28 03:04:21;;;;;;;20.70;12.80;;;-3.30;99.60;;;;;;5053014;28;20047;-81
2023/02/28 03:06:46;;;;;;;20.90;12.40;;;-3.30;99.90;;;;;;5052976;28;20021;-80
2023/02/28 03:09:12;;;;;;;24.63;11.85;;;-3.40;99.90;;;;;;5051762;28;20033;-79
2023/02/28 03:11:39;;;;;;;24.25;13.07;;;-3.50;99.90;;;;;;5053013;28;20463;-80
2023/02/28 03:14:05;;;;;;;25.98;12.20;;;-3.50;99.90;;;;;;5052271;28;20020;-80
2023/02/28 03:16:52;;;;;;;22.75;12.02;;;-3.50;99.90;;;;;;5051939;28;20145;-81
2023/02/28 03:19:23;;;;;;;20.25;10.57;;;-3.50;99.90;;;;;;5052940;28;20483;-81
2023/02/28 03:22:00;;;;;;;24.33;12.18;;;-3.50;99.90;;;;;;5051588;28;20075;-80
2023/02/28 03:24:43;;;;;;;22.67;11.05;;;-3.60;99.90;;;;;;5053200;28;20360;-79
2023/02/28 03:27:17;;;;;;;;;;;-3.60;99.90;;;;;;5053274;28;20017;-79
2023/02/28 03:29:51;;;;;;;20.27;10.15;;;-3.50;99.90;;;;;;5051590;28;20423;-80
2023/02/28 03:32:33;;;;;;;17.48;9.77;;;-3.50;99.90;;;;;;5052564;28;20390;-80
2023/02/28 03:35:05;;;;;;;21.83;10.60;;;-3.50;99.90;;;;;;5052825;28;20029;-80
2023/02/28 03:37:36;;;;;;;20.10;12.23;;;-3.60;99.90;;;;;;5052672;28;20029;-81
2023/02/28 03:40:08;;;;;;;21.33;11.15;;;-3.60;99.90;;;;;;5051394;28;20182;-79
2023/02/28 03:42:36;;;;;;;17.20;10.85;;;-3.60;99.90;;;;;;5052229;28;20024;-82
2023/02/28 03:45:11;;;;;;;20.17;10.90;;;-3.60;99.90;;;;;;5011137;28;1135555;-81
2023/02/28 03:47:48;;;;;;;19.05;11.27;;;-3.60;99.90;;;;;;5052303;28;20470;-81
2023/02/28 03:50:21;;;;;;;21.13;11.18;;;-3.70;99.90;;;;;;5051983;28;20389;-80
2023/02/28 03:53:01;;;;;;;20.58;11.50;;;-3.70;99.90;;;;;;5051810;28;20028;-83
2023/02/28 03:55:30;;;;;;;22.20;11.13;;;-3.80;99.90;;;;;;5051788;28;20025;-80
2023/02/28 03:58:25;;;;;;;22.15;11.73;;;-3.80;99.90;;;;;;5051755;28;20039;-81
2023/02/28 04:00:59;;;;;;;21.85;11.00;;;-3.90;99.90;;;;;;5053187;28;20083;-81
2023/02/28 04:03:24;;;;;;;26.38;11.63;;;-3.90;99.90;;;;;;5052841;28;20083;-81
2023/02/28 04:05:55;;;;;;;25.05;11.80;;;-3.90;99.90;;;;;;5053263;28;20030;-82
2023/02/28 04:08:22;;;;;;;24.05;11.07;;;-4.00;99.90;;;;;;5052883;28;20036;-80
2023/02/28 04:10:55;;;;;;;26.55;12.20;;;-4.00;99.90;;;;;;5051677;28;20024;-80
2023/02/28 04:13:21;;;;;;;25.35;11.90;;;-4.10;99.90;;;;;;5052082;28;20053;-79
2023/02/28 04:15:46;;;;;;;19.63;10.63;;;-4.10;99.90;;;;;;5051967;28;20025;-79
2023/02/28 04:18:12;;;;;;;23.65;12.02;;;-4.10;99.90;;;;;;5053145;28;20045;-80
2023/02/28 04:20:37;;;;;;;20.40;10.73;;;-4.20;99.90;;;;;;5052813;28;20017;-80
2023/02/28 04:23:03;;;;;;;27.60;11.70;;;-4.20;99.90;;;;;;5051454;28;20082;-80
2023/02/28 04:25:28;;;;;;;25.40;12.52;;;-4.20;99.90;;;;;;5052979;28;20047;-80
2023/02/28 04:27:54;;;;;;;24.77;12.35;;;-4.20;99.90;;;;;;5055556;28;20075;-80
2023/02/28 04:30:20;;;;;;;22.13;12.15;;;-4.30;99.90;;;;;;5056850;28;20077;-79
2023/02/28 04:32:45;;;;;;;27.80;12.80;;;-4.30;99.90;;;;;;5055778;28;20475;-81
2023/02/28 04:35:11;;;;;;;20.20;11.75;;;-4.30;99.90;;;;;;5055531;28;20025;-83
2023/02/28 04:37:37;;;;;;;23.40;12.82;;;-4.40;99.90;;;;;;5056483;28;20037;-82
2023/02/28 04:40:03;;;;;;;22.27;12.35;;;-4.40;99.90;;;;;;5056677;28;20017;-82
2023/02/28 04:42:35;;;;;;;21.00;12.25;;;-4.50;99.90;;;;;;5055234;28;20025;-82
2023/02/28 04:45:03;;;;;;;22.60;13.43;;;-4.50;99.90;;;;;;5056673;28;20044;-81
2023/02/28 04:47:29;;;;;;;26.75;13.98;;;-4.50;99.90;;;;;;5056247;28;20107;-81
2023/02/28 04:49:55;;;;;;;23.98;13.25;;;-4.50;99.90;;;;;;5055261;28;20064;-81
2023/02/28 04:52:20;;;;;;;22.75;12.35;;;-4.60;99.90;;;;;;5056482;28;20029;-80
2023/02/28 04:54:46;;;;;;;31.75;14.00;;;-4.60;99.90;;;;;;5036531;28;20044;-80
2023/02/28 04:57:12;;;;;;;23.77;13.60;;;-4.70;99.90;;;;;;5035421;28;20112;-80
2023/02/28 04:59:38;;;;;;;26.65;13.35;;;-4.70;99.90;;;;;;5054982;28;20048;-81
2023/02/28 05:02:06;;;;;;;28.85;14.10;;;-4.70;99.90;;;;;;5055215;28;20115;-81
2023/02/28 05:04:34;;;;;;;31.58;14.15;;;-4.70;99.90;;;;;;5054818;28;20036;-81
2023/02/28 05:07:00;;;;;;;25.80;13.60;;;-4.80;99.90;;;;;;5054854;28;20078;-81
2023/02/28 05:09:27;;;;;;;28.13;14.52;;;-4.90;99.90;;;;;;5055054;28;20017;-81
2023/02/28 05:11:53;;;;;;;32.83;14.75;;;-4.90;99.90;;;;;;5054877;28;20029;-82
2023/02/28 05:14:19;;;;;;;26.38;13.07;;;-4.90;99.90;;;;;;5056189;28;20023;-82
2023/02/28 05:16:44;;;;;;;30.23;14.52;;;-4.90;99.90;;;;;;5054793;28;20025;-81
2023/02/28 05:19:10;;;;;;;28.42;13.35;;;-5.00;99.90;;;;;;5055830;28;20108;-81
2023/02/28 05:21:39;;;;;;;31.27;13.90;;;-4.90;99.90;;;;;;5056102;28;20405;-80
2023/02/28 05:24:08;;;;;;;22.77;11.57;;;-5.00;99.90;;;;;;5063477;28;20344;-81
2023/02/28 05:26:37;;;;;;;24.48;11.95;;;-5.10;99.90;;;;;;5054586;28;20028;-80
2023/02/28 05:29:02;;;;;;;22.30;12.63;;;-5.00;99.90;;;;;;5055750;28;20044;-81
2023/02/28 05:31:28;;;;;;;23.33;11.10;;;-5.00;99.90;;;;;;5055801;28;20032;-79
2023/02/28 05:33:53;;;;;;;22.23;15.02;;;-5.00;99.90;;;;;;5054398;28;20021;-79
2023/02/28 05:36:20;;;;;;;28.85;14.60;;;-4.90;99.90;;;;;;5054326;28;20025;-81
2023/02/28 05:38:49;;;;;;;23.48;13.38;;;-4.90;99.90;;;;;;5055322;28;20037;-80
2023/02/28 05:41:16;;;;;;;28.13;14.50;;;-4.90;99.90;;;;;;5054498;28;20051;-80
2023/02/28 05:43:42;;;;;;;28.55;14.82;;;-4.80;99.90;;;;;;5054278;28;20417;-81
2023/02/28 05:46:09;;;;;;;27.73;14.93;;;-4.80;99.90;;;;;;5054250;28;20095;-79
2023/02/28 05:48:36;;;;;;;36.28;16.42;;;-4.80;99.90;;;;;;5054132;28;20420;-79
2023/02/28 05:51:03;;;;;;;37.92;17.80;;;-4.80;99.90;;;;;;5054072;28;20025;-81
2023/02/28 05:53:30;;;;;;;65.15;25.48;;;-4.70;99.90;;;;;;5054154;28;20033;-80
2023/02/28 05:55:55;;;;;;;479.23;147.05;;;-4.60;99.90;;;;;;5055495;28;20505;-81
2023/02/28 05:58:21;;;;;;;597.10;200.85;;;-4.60;99.90;;;;;;5040322;28;20040;-80
2023/02/28 06:00:47;;;;;;;191.05;62.25;;;-4.50;99.90;;;;;;5075145;28;20017;-79
2023/02/28 06:03:13;;;;;;;123.40;40.28;;;-4.50;99.90;;;;;;5070243;28;20029;-81
2023/02/28 06:05:39;;;;;;;52.10;20.92;;;-4.50;99.90;;;;;;5053738;28;20028;-84
2023/02/28 06:08:07;;;;;;;31.77;16.00;;;-4.40;99.90;;;;;;5054978;28;20021;-84
2023/02/28 06:10:35;;;;;;;27.60;14.40;;;-4.40;99.90;;;;;;5054767;28;20533;-81
2023/02/28 06:13:02;;;;;;;27.77;14.98;;;-4.30;99.90;;;;;;5054643;28;20104;-81
2023/02/28 06:15:28;;;;;;;29.50;16.05;;;-4.30;99.90;;;;;;5053479;28;20190;-82
2023/02/28 06:17:56;;;;;;;39.78;20.25;;;-4.20;99.90;;;;;;5053450;28;20100;-80
2023/02/28 06:20:23;;;;;;;38.92;19.80;;;-4.10;99.90;;;;;;5044979;28;20025;-81
2023/02/28 06:22:50;;;;;;;106.00;38.92;;;-4.10;99.90;;;;;;5054677;28;20029;-80
2023/02/28 06:25:15;;;;;;;68.63;28.83;;;-4.00;99.90;;;;;;5057070;28;20052;-79
2023/02/28 06:27:41;;;;;;;83.10;36.15;;;-3.90;99.90;;;;;;5062459;28;20114;-80
2023/02/28 06:30:07;;;;;;;90.55;33.83;;;-3.80;99.90;;;;;;5054515;28;20382;-81
2023/02/28 06:32:33;;;;;;;85.78;33.70;;;-3.70;99.90;;;;;;5068457;28;20111;-81
2023/02/28 06:34:58;;;;;;;54.55;21.20;;;-3.50;99.90;;;;;;5062789;28;20099;-81
2023/02/28 06:37:27;;;;;;;36.65;19.00;;;-3.40;99.90;;;;;;5073188;28;20029;-80
2023/02/28 06:39:55;;;;;;;30.02;16.90;;;-3.30;99.90;;;;;;5057614;28;20470;-80
2023/02/28 06:42:22;;;;;;;31.17;16.98;;;-3.20;99.90;;;;;;5052465;28;20017;-81
2023/02/28 06:44:48;;;;;;;33.03;16.80;;;-3.10;99.90;;;;;;5054076;28;20498;-81
2023/02/28 06:47:14;;;;;;;35.88;15.45;;;-2.90;99.90;;;;;;5056120;28;20045;-80
2023/02/28 06:49:39;;;;;;;33.85;15.05;;;-2.80;99.90;;;;;;5053432;28;20035;-81
2023/02/28 06:52:05;;;;;;;32.42;17.15;;;-2.60;99.90;;;;;;5054327;28;20095;-80
2023/02/28 06:54:30;;;;;;;30.17;16.10;;;-2.40;99.90;;;;;;5061201;28;20063;-79
2023/02/28 06:56:57;;;;;;;32.70;14.50;;;-2.40;99.90;;;;;;5052882;28;20058;-80
2023/02/28 06:59:23;;;;;;;27.15;14.75;;;-2.40;99.90;;;;;;5052415;28;20537;-79
2023/02/28 07:01:48;;;;;;;24.65;13.65;;;-2.30;99.90;;;;;;5052758;28;20025;-81
2023/02/28 07:04:14;;;;;;;29.33;16.15;;;-2.20;99.90;;;;;;5052683;28;20033;-80
2023/02/28 07:06:40;;;;;;;28.27;15.48;;;-2.10;99.90;;;;;;5052660;28;20036;-80
2023/02/28 07:09:06;;;;;;;25.75;13.98;;;-2.00;99.80;;;;;;5053742;28;20482;-80
2023/02/28 07:11:31;;;;;;;28.17;14.77;;;-1.90;96.10;;;;;;5053961;28;20470;-81
2023/02/28 07:13:58;;;;;;;26.13;14.95;;;-1.80;94.70;;;;;;5052801;28;20051;-81
2023/02/28 07:16:24;;;;;;;29.27;14.07;;;-1.70;94.10;;;;;;5052664;28;20025;-80
2023/02/28 07:18:53;;;;;;;25.83;12.93;;;-1.60;90.90;;;;;;5065255;28;20041;-81
2023/02/28 07:21:19;;;;;;;25.65;13.60;;;-1.50;85.30;;;;;;5061195;28;20054;-81
2023/02/28 07:23:44;;;;;;;23.90;13.23;;;-1.50;84.00;;;;;;5058117;28;20025;-80
2023/02/28 07:26:14;;;;;;;19.13;12.32;;;-1.30;84.50;;;;;;5058427;28;20024;-80
2023/02/28 07:28:44;;;;;;;24.20;12.57;;;-1.40;82.20;;;;;;5059957;28;20055;-81
2023/02/28 07:31:11;;;;;;;24.08;11.93;;;-1.20;82.40;;;;;;5061220;28;20016;-80
2023/02/28 07:33:37;;;;;;;22.10;11.98;;;-1.20;80.60;;;;;;5063389;28;20478;-81
2023/02/28 07:36:14;;;;;;;25.83;14.25;;;-1.10;80.00;;;;;;5052484;28;20037;-80
2023/02/28 07:38:44;;;;;;;23.98;12.45;;;-1.00;78.20;;;;;;5039628;28;20140;-80
2023/02/28 07:41:10;;;;;;;25.88;13.63;;;-1.00;76.60;;;;;;5047228;28;20028;-79
2023/02/28 07:43:36;;;;;;;28.80;14.93;;;-0.90;78.10;;;;;;5049686;28;20025;-79
2023/02/28 07:46:04;;;;;;;24.33;13.27;;;-0.80;77.40;;;;;;5049624;28;20106;-79
2023/02/28 07:48:30;;;;;;;21.80;11.68;;;-0.80;75.60;;;;;;5050126;28;20020;-80
2023/02/28 07:50:56;;;;;;;24.63;13.32;;;-0.80;74.50;;;;;;5047938;28;20554;-79
2023/02/28 07:53:22;;;;;;;22.65;13.73;;;-0.80;73.60;;;;;;5048017;28;20025;-79
2023/02/28 07:55:48;;;;;;;24.00;13.15;;;-0.90;75.00;;;;;;5049270;28;20379;-79
2023/02/28 07:58:13;;;;;;;24.02;13.07;;;-1.00;74.80;;;;;;5049483;28;20132;-79
2023/02/28 08:00:39;;;;;;;24.95;13.73;;;-0.90;75.30;;;;;;5047853;28;20053;-79
2023/02/28 08:03:04;;;;;;;22.90;13.65;;;-0.90;75.30;;;;;;5048692;28;20025;-79
2023/02/28 08:05:30;;;;;;;32.88;14.15;;;-0.90;74.80;;;;;;5052000;28;20063;-79
2023/02/28 08:07:56;;;;;;;25.88;13.50;;;-0.80;74.70;;;;;;5052015;28;20021;-79
2023/02/28 08:10:22;;;;;;;24.45;13.50;;;-0.70;74.80;;;;;;5052828;28;20035;-79
2023/02/28 08:12:48;;;;;;;25.95;14.63;;;-0.60;75.30;;;;;;5053450;28;20104;-80
2023/02/28 08:15:13;;;;;;;28.65;13.75;;;-0.60;74.80;;;;;;5052960;28;20029;-79
2023/02/28 08:17:39;;;;;;;21.77;12.70;;;-0.50;73.30;;;;;;5053033;28;20036;-80
2023/02/28 08:20:05;;;;;;;20.55;12.77;;;-0.40;72.70;;;;;;5052634;28;20075;-80
2023/02/28 08:22:31;;;;;;;21.88;14.60;;;-0.30;72.80;;;;;;5052848;28;20408;-80
2023/02/28 08:24:56;;;;;;;19.75;13.70;;;-0.20;73.30;;;;;;5051759;28;20018;-80
2023/02/28 08:27:22;;;;;;;24.55;12.60;;;-0.30;72.20;;;;;;5052827;28;20037;-80
2023/02/28 08:29:48;;;;;;;25.58;13.35;;;-0.40;71.90;;;;;;5051472;28;20036;-80
2023/02/28 08:32:13;;;;;;;25.23;14.23;;;-0.60;72.50;;;;;;5052686;28;20032;-80
2023/02/28 08:34:40;;;;;;;19.42;12.55;;;-0.70;71.90;;;;;;5051301;28;20467;-80
2023/02/28 08:37:06;;;;;;;23.35;12.65;;;-0.80;70.80;;;;;;5052690;28;20017;-80
2023/02/28 08:39:35;;;;;;;20.85;12.90;;;-0.80;71.60;;;;;;5052549;28;20056;-80
2023/02/28 08:42:01;;;;;;;20.80;11.73;;;-0.90;72.00;;;;;;5051099;28;20024;-79
2023/02/28 08:44:27;;;;;;;21.55;11.60;;;-1.00;71.30;;;;;;5051461;28;20391;-80
2023/02/28 08:46:52;;;;;;;21.45;11.68;;;-1.00;71.40;;;;;;5051512;28;20049;-80
2023/02/28 08:49:18;;;;;;;18.67;11.20;;;-1.10;71.80;;;;;;5052534;28;20032;-80
2023/02/28 08:51:44;;;;;;;24.85;12.02;;;-1.00;72.30;;;;;;5052580;28;20029;-80
2023/02/28 08:54:12;;;;;;;22.58;11.23;;;-1.00;70.90;;;;;;5050970;28;20025;-80
2023/02/28 08:56:38;;;;;;;19.50;10.60;;;-1.00;72.40;;;;;;5051636;28;20021;-79
2023/02/28 08:59:04;;;;;;;19.15;11.40;;;-1.00;73.10;;;;;;5052445;28;20029;-80
2023/02/28 09:01:31;;;;;;;22.58;12.15;;;-1.00;72.30;;;;;;5052431;28;20425;-80
2023/02/28 09:03:57;;;;;;;17.98;10.52;;;-1.10;72.20;;;;;;5052358;28;20013;-80
2023/02/28 09:06:25;;;;;;;25.05;11.77;;;-1.00;73.10;;;;;;5052114;28;20135;-80
2023/02/28 09:08:51;;;;;;;22.35;12.45;;;-1.00;73.00;;;;;;5052524;28;20017;-80
2023/02/28 09:11:18;;;;;;;17.88;10.63;;;-0.90;74.00;;;;;;5052772;28;20036;-80
2023/02/28 09:13:44;;;;;;;14.73;10.43;;;-0.80;72.50;;;;;;5055111;28;20120;-80
2023/02/28 09:16:13;;;;;;;19.48;11.15;;;-0.80;72.20;;;;;;5054302;28;20044;-80
2023/02/28 09:18:39;;;;;;;16.77;10.63;;;-0.80;71.50;;;;;;5055891;28;20033;-80
2023/02/28 09:21:07;;;;;;;21.13;9.88;;;-0.80;71.80;;;;;;5055809;28;20079;-79
2023/02/28 09:23:33;;;;;;;18.35;9.98;;;-0.80;71.10;;;;;;5056071;28;20032;-80
2023/02/28 09:25:59;;;;;;;21.40;11.00;;;-0.90;70.90;;;;;;5055658;28;20434;-80
2023/02/28 09:28:24;;;;;;;19.20;11.55;;;-0.90;71.60;;;;;;5054603;28;20105;-80
2023/02/28 09:30:53;;;;;;;17.05;10.10;;;-1.00;71.60;;;;;;5055802;28;20470;-79
2023/02/28 09:33:20;;;;;;;16.23;9.90;;;-1.00;72.00;;;;;;5055694;28;20082;-80
2023/02/28 09:35:47;;;;;;;18.98;11.52;;;-0.90;71.90;;;;;;5054635;28;20033;-80
2023/02/28 09:38:13;;;;;;;16.20;9.85;;;-0.90;72.70;;;;;;5055587;28;20032;-79
2023/02/28 09:41:01;;;;;;;16.77;10.35;;;-0.80;73.00;;;;;;5055759;28;20032;-80
2023/02/28 09:43:34;;;;;;;19.13;10.98;;;-0.80;73.10;;;;;;5055989;28;20021;-80
2023/02/28 09:46:08;;;;;;;;;;;-0.70;72.50;;;;;;5055947;28;20053;-80
2023/02/28 09:48:39;;;;;;;20.70;11.90;;;-0.60;72.40;;;;;;5055846;28;19947;-80
2023/02/28 09:51:27;;;;;;;19.23;9.95;;;-0.40;72.00;;;;;;5055805;28;20386;-80
2023/02/28 09:53:53;;;;;;;20.10;11.05;;;-0.40;70.90;;;;;;5055810;28;20052;-80
2023/02/28 09:56:27;;;;;;;17.60;9.88;;;-0.40;70.40;;;;;;5054549;28;20036;-80
2023/02/28 09:59:11;;;;;;;17.23;10.63;;;-0.30;70.60;;;;;;5055473;28;20044;-80
2023/02/28 10:01:59;;;;;;;19.17;11.43;;;-0.30;70.20;;;;;;5055795;28;20475;-80
2023/02/28 10:04:57;;;;;;;20.33;11.13;;;-0.20;70.50;;;;;;5055476;28;20013;-80
2023/02/28 10:07:26;;;;;;;22.58;11.05;;;0.00;69.70;;;;;;5055682;28;20025;-80
2023/02/28 10:09:55;;;;;;;17.00;10.27;;;0.00;69.00;;;;;;5055505;28;20052;-80
2023/02/28 10:12:21;;;;;;;18.65;9.80;;;-0.20;67.70;;;;;;5055166;28;20095;-80
2023/02/28 10:14:51;;;;;;;15.00;9.57;;;-0.30;67.70;;;;;;5055318;28;20032;-80
2023/02/28 10:17:21;;;;;;;17.17;10.55;;;-0.40;67.40;;;;;;5055468;28;20025;-80
2023/02/28 10:20:00;;;;;;;14.98;9.73;;;-0.30;67.50;;;;;;5055422;28;20028;-80
2023/02/28 10:22:29;;;;;;;16.88;10.20;;;-0.20;68.60;;;;;;5053133;28;20024;-80
2023/02/28 10:24:59;;;;;;;17.48;9.93;;;-0.10;68.60;;;;;;5053388;28;20025;-79
2023/02/28 10:27:34;;;;;;;19.40;9.63;;;-0.10;68.30;;;;;;5055103;28;20025;-80
2023/02/28 10:30:01;;;;;;;17.15;9.43;;;0.00;67.10;;;;;;5053528;28;20028;-80
2023/02/28 10:32:35;;;;;;;17.77;10.63;;;0.00;66.50;;;;;;5053701;28;20027;-80
2023/02/28 10:35:10;;;;;;;21.67;15.70;;;0.10;67.30;;;;;;5054695;28;20498;-80
2023/02/28 10:37:44;;;;;;;21.58;13.05;;;0.30;68.00;;;;;;5054732;28;20040;-80
2023/02/28 10:40:19;;;;;;;16.42;8.90;;;0.30;67.10;;;;;;5054548;28;20040;-81
2023/02/28 10:43:03;;;;;;;20.48;11.15;;;0.20;65.60;;;;;;5053539;28;20114;-80
2023/02/28 10:45:31;;;;;;;15.07;9.48;;;0.50;64.80;;;;;;5054678;28;20029;-80
2023/02/28 10:47:59;;;;;;;17.48;9.23;;;0.50;64.30;;;;;;5053385;28;20103;-80
2023/02/28 10:50:44;;;;;;;15.10;8.90;;;0.60;64.20;;;;;;5053522;28;20382;-80
2023/02/28 10:53:33;;;;;;;14.88;10.23;;;0.70;64.20;;;;;;5052920;28;20025;-80
2023/02/28 10:56:16;;;;;;;20.80;13.55;;;1.00;63.50;;;;;;5052868;28;20067;-80
2023/02/28 10:59:00;;;;;;;15.10;10.23;;;1.20;64.10;;;;;;5053929;28;20371;-80
2023/02/28 11:01:38;;;;;;;20.98;10.68;;;1.40;64.10;;;;;;5053892;28;20021;-80
2023/02/28 11:04:22;;;;;;;17.02;10.35;;;1.50;62.80;;;;;;5054026;28;20029;-80
2023/02/28 11:07:02;;;;;;;13.98;10.57;;;1.20;61.60;;;;;;5054037;28;20025;-80
2023/02/28 11:09:35;;;;;;;20.90;12.57;;;1.10;61.80;;;;;;5054002;28;20029;-81
2023/02/28 11:12:05;;;;;;;18.27;9.88;;;1.10;62.70;;;;;;5054025;28;20025;-80
2023/02/28 11:14:36;;;;;;;13.70;8.95;;;1.20;62.80;;;;;;5053928;28;20028;-80
2023/02/28 11:17:27;;;;;;;29.92;22.77;;;1.30;62.00;;;;;;5053958;28;20112;-80
2023/02/28 11:20:07;;;;;;;18.02;9.48;;;1.30;61.80;;;;;;5052456;28;20429;-80
2023/02/28 11:22:40;;;;;;;15.98;8.88;;;1.20;62.40;;;;;;5053623;28;20094;-80
2023/02/28 11:25:21;;;;;;;17.08;10.05;;;1.10;63.00;;;;;;5053154;28;20024;-80
2023/02/28 11:27:49;;;;;;;19.77;10.57;;;1.10;63.90;;;;;;5052887;28;20487;-81
2023/02/28 11:30:33;;;;;;;13.18;8.77;;;0.90;62.10;;;;;;5057131;28;20060;-81
2023/02/28 11:33:00;;;;;;;19.73;10.38;;;0.90;61.30;;;;;;5060760;28;20099;-80
2023/02/28 11:35:29;;;;;;;16.20;9.55;;;0.90;61.10;;;;;;5060756;28;20113;-80
2023/02/28 11:37:55;;;;;;;75.15;27.38;;;1.00;61.80;;;;;;5058750;28;20028;-80
2023/02/28 11:40:55;;;;;;;16.95;9.38;;;1.10;63.60;;;;;;5056999;28;20021;-80
2023/02/28 11:43:30;;;;;;;15.13;8.77;;;0.90;62.00;;;;;;5013667;28;20036;-80
2023/02/28 11:46:12;;;;;;;13.80;7.20;;;0.90;61.30;;;;;;5060063;28;20045;-80
2023/02/28 11:48:55;;;;;;;16.95;10.77;;;0.80;61.20;;;;;;5061248;28;20016;-80
2023/02/28 11:51:51;;;;;;;14.82;8.38;;;0.90;61.30;;;;;;5059912;28;20021;-80
2023/02/28 11:54:53;;;;;;;12.45;8.98;;;1.00;60.80;;;;;;5061278;28;20029;-80
2023/02/28 11:57:51;;;;;;;13.43;8.60;;;1.00;60.80;;;;;;5060204;28;20032;-80
2023/02/28 12:00:49;;;;;;;14.82;8.50;;;1.00;61.20;;;;;;5061398;28;20025;-80
2023/02/28 12:03:29;;;;;;;63.78;22.63;;;1.10;61.20;;;;;;5043199;28;20028;-80
2023/02/28 12:05:58;;;;;;;28.35;12.60;;;1.10;62.00;;;;;;5062021;28;20036;-81
2023/02/28 12:08:49;;;;;;;14.35;9.15;;;1.20;62.00;;;;;;5070373;28;20028;-81
2023/02/28 12:11:53;;;;;;;34.92;16.40;;;1.40;62.40;;;;;;5049922;28;20065;-81
2023/02/28 12:14:45;;;;;;;24.10;10.65;;;1.40;62.00;;;;;;5060196;28;20771;-81
2023/02/28 12:17:28;;;;;;;18.27;10.40;;;1.40;62.50;;;;;;5039904;28;20387;-81
2023/02/28 12:20:20;;;;;;;14.82;9.23;;;1.30;60.20;;;;;;5058878;28;20027;-81
2023/02/28 12:23:21;;;;;;;38.63;15.32;;;1.30;60.60;;;;;;5056318;28;20029;-81
2023/02/28 12:26:14;;;;;;;59.72;20.27;;;1.40;61.10;;;;;;5058062;28;20041;-81
2023/02/28 12:28:52;;;;;;;;;;;1.40;61.10;;;;;;5061331;28;20047;-81
2023/02/28 12:31:23;;;;;;;14.60;9.13;;;1.50;61.80;;;;;;5061707;28;19962;-81
2023/02/28 12:34:25;;;;;;;15.20;8.68;;;1.50;60.90;;;;;;5065193;28;20024;-81
2023/02/28 12:36:53;;;;;;;18.05;9.65;;;1.40;60.80;;;;;;5072284;28;20021;-81
2023/02/28 12:39:26;;;;;;;37.40;15.52;;;1.40;61.00;;;;;;5072058;28;20040;-81
2023/02/28 12:42:02;;;;;;;74.80;28.52;;;1.40;62.00;;;;;;5072442;28;20163;-81
2023/02/28 12:44:36;;;;;;;71.10;29.15;;;1.40;63.30;;;;;;5072217;28;20150;-81
2023/02/28 12:47:08;;;;;;;22.52;12.30;;;1.50;63.80;;;;;;5069530;28;20509;-81
2023/02/28 12:49:44;;;;;;;97.27;30.03;;;1.50;63.90;;;;;;5064023;28;20100;-81